Time;durP1;ratioP1;P1;durP2;ratioP2;P2;SDS_P1;SDS_P2;PMS_P1;PMS_P2;Temp;Humidity;BMP_temperature;BMP_pressure;BME280_temperature;BME280_humidity;BME280_pressure;Samples;Min_cycle;Max_cycle;Signal;HPM_P1;HPM_P2
2023/04/11 04:05:21;;;;;;;0.30;0.30;;;10.30;99.90;;;;;;5412650;23;20244;-64
2023/04/11 04:07:46;;;;;;;0.60;0.60;;;10.30;99.90;;;;;;4956092;29;20200;-65
2023/04/11 04:10:12;;;;;;;0.80;0.50;;;10.20;99.90;;;;;;4956252;29;20180;-65
2023/04/11 04:12:38;;;;;;;0.83;0.83;;;10.20;99.90;;;;;;4956056;29;20203;-67
2023/04/11 04:15:05;;;;;;;0.30;0.30;;;10.20;99.90;;;;;;4955717;28;20240;-65
2023/04/11 04:17:30;;;;;;;0.77;0.63;;;10.20;99.90;;;;;;4956120;29;20181;-65
2023/04/11 04:19:56;;;;;;;2.40;0.47;;;10.10;99.90;;;;;;4955960;28;20622;-67
2023/04/11 04:22:22;;;;;;;2.83;0.40;;;10.10;99.90;;;;;;4956745;28;20224;-65
2023/04/11 04:24:48;;;;;;;0.60;0.60;;;10.10;99.90;;;;;;4955362;29;20200;-65
2023/04/11 04:27:16;;;;;;;0.43;0.43;;;10.10;99.90;;;;;;4955820;29;20205;-64
2023/04/11 04:29:46;;;;;;;0.50;0.47;;;10.10;99.90;;;;;;4955920;29;20165;-65
2023/04/11 04:32:13;;;;;;;0.88;0.88;;;10.10;99.90;;;;;;4955092;29;20200;-65
2023/04/11 04:34:48;;;;;;;0.47;0.47;;;10.10;99.90;;;;;;4936991;29;20713;-67
2023/04/11 04:37:21;;;;;;;0.30;0.30;;;10.10;99.90;;;;;;4955952;29;20568;-66
2023/04/11 04:39:53;;;;;;;0.93;0.50;;;10.10;99.90;;;;;;4955969;29;20179;-67
2023/04/11 04:42:28;;;;;;;0.70;0.60;;;10.10;99.90;;;;;;4955370;29;20208;-65
2023/04/11 04:44:55;;;;;;;3.05;0.82;;;10.00;99.90;;;;;;4955081;29;20211;-65
2023/04/11 04:47:28;;;;;;;0.77;0.55;;;10.00;99.90;;;;;;4955638;29;20587;-67
2023/04/11 04:49:55;;;;;;;0.52;0.52;;;10.00;99.90;;;;;;4955646;29;20208;-65
2023/04/11 04:52:25;;;;;;;1.95;0.85;;;10.10;99.90;;;;;;4955191;28;20172;-65
2023/04/11 04:54:51;;;;;;;2.97;0.73;;;10.00;99.90;;;;;;4954717;29;20566;-65
2023/04/11 04:57:16;;;;;;;0.52;0.52;;;10.00;99.90;;;;;;4955446;29;20184;-66
2023/04/11 04:59:45;;;;;;;0.67;0.60;;;10.00;99.90;;;;;;4955435;29;20260;-65
2023/04/11 05:02:11;;;;;;;0.40;0.30;;;10.00;99.90;;;;;;4953944;28;20550;-65
2023/04/11 05:04:37;;;;;;;1.77;1.67;;;10.00;99.90;;;;;;4974312;28;20195;-66
2023/04/11 05:07:03;;;;;;;1.27;1.17;;;10.00;99.90;;;;;;4974441;28;20207;-66
2023/04/11 05:09:28;;;;;;;3.60;0.60;;;10.00;99.90;;;;;;4974534;28;20519;-65
2023/04/11 05:11:55;;;;;;;0.50;0.50;;;9.90;99.90;;;;;;4960589;28;20173;-66
2023/04/11 05:14:21;;;;;;;0.40;0.40;;;9.90;99.90;;;;;;4954864;29;20192;-65
2023/04/11 05:16:46;;;;;;;0.70;0.50;;;9.90;99.90;;;;;;4955099;29;20508;-66
2023/04/11 05:19:12;;;;;;;3.80;0.90;;;9.80;99.90;;;;;;4937787;29;20625;-64
2023/04/11 05:21:38;;;;;;;0.90;0.90;;;9.80;99.90;;;;;;4966205;28;20183;-66
2023/04/11 05:24:04;;;;;;;0.40;0.40;;;9.70;99.90;;;;;;4973945;28;20219;-66
2023/04/11 05:26:30;;;;;;;0.90;0.60;;;9.70;99.90;;;;;;4974245;28;20418;-65
2023/04/11 05:28:57;;;;;;;1.40;1.13;;;9.60;99.90;;;;;;4974418;28;20403;-65
2023/04/11 05:31:24;;;;;;;0.47;0.47;;;9.50;99.90;;;;;;4964679;28;20205;-65
2023/04/11 05:33:50;;;;;;;0.68;0.68;;;9.50;99.90;;;;;;4954531;29;20179;-66
2023/04/11 05:36:16;;;;;;;0.53;0.53;;;9.40;99.90;;;;;;4955072;29;20255;-64
2023/04/11 05:38:45;;;;;;;0.40;0.40;;;9.30;99.90;;;;;;4955200;29;20436;-66
2023/04/11 05:41:11;;;;;;;0.70;0.60;;;9.30;99.90;;;;;;4962185;28;20175;-65
2023/04/11 05:43:37;;;;;;;1.10;1.10;;;9.20;99.90;;;;;;4973949;28;20219;-66
2023/04/11 05:46:04;;;;;;;1.17;1.08;;;9.20;99.90;;;;;;4974324;28;20177;-66
2023/04/11 05:48:30;;;;;;;0.80;0.80;;;9.10;99.90;;;;;;4974270;28;20211;-67
2023/04/11 05:50:57;;;;;;;0.40;0.40;;;9.10;99.90;;;;;;4969258;28;20173;-64
2023/04/11 05:53:22;;;;;;;0.77;0.68;;;9.10;99.90;;;;;;4954673;29;20168;-65
2023/04/11 05:55:48;;;;;;;0.43;0.40;;;9.20;99.90;;;;;;4954842;29;20195;-66
2023/04/11 05:58:14;;;;;;;0.70;0.70;;;9.20;99.90;;;;;;4955133;29;20638;-67
2023/04/11 06:00:39;;;;;;;1.43;0.60;;;9.20;99.90;;;;;;4956838;28;20175;-65
2023/04/11 06:03:06;;;;;;;0.50;0.50;;;9.30;99.90;;;;;;4973952;28;20625;-65
2023/04/11 06:05:33;;;;;;;0.40;0.40;;;9.30;99.90;;;;;;4974927;28;20204;-66
2023/04/11 06:08:00;;;;;;;0.80;0.52;;;9.30;99.90;;;;;;4977739;28;20195;-67
2023/04/11 06:10:27;;;;;;;0.60;0.60;;;9.30;99.90;;;;;;4977385;28;20195;-69
2023/04/11 06:12:53;;;;;;;6.28;0.77;;;9.30;99.90;;;;;;4958460;29;20169;-67
2023/04/11 06:15:20;;;;;;;1.15;0.70;;;9.30;99.90;;;;;;4957676;29;20221;-66
2023/04/11 06:17:46;;;;;;;1.63;1.30;;;9.30;99.90;;;;;;4958634;29;20582;-66
2023/04/11 06:20:11;;;;;;;2.60;2.40;;;9.30;99.90;;;;;;4958412;29;20200;-66
2023/04/11 06:22:39;;;;;;;1.10;1.00;;;9.30;99.90;;;;;;4957828;29;20185;-66
2023/04/11 06:25:08;;;;;;;0.93;0.70;;;9.40;99.90;;;;;;4957692;29;20197;-66
2023/04/11 06:27:34;;;;;;;0.40;0.35;;;9.40;99.90;;;;;;4958141;29;20192;-66
2023/04/11 06:30:00;;;;;;;0.37;0.37;;;9.40;99.90;;;;;;4964364;28;20515;-67
2023/04/11 06:32:26;;;;;;;0.37;0.37;;;9.40;99.90;;;;;;4959889;28;20183;-67
2023/04/11 06:34:51;;;;;;;0.50;0.50;;;9.50;99.90;;;;;;4976917;28;20188;-66
2023/04/11 06:37:17;;;;;;;0.63;0.60;;;9.50;99.90;;;;;;4970407;28;20989;-65
2023/04/11 06:39:42;;;;;;;0.40;0.40;;;9.50;99.90;;;;;;4940871;29;20173;-65
2023/04/11 06:42:08;;;;;;;0.40;0.40;;;9.60;99.90;;;;;;4957840;29;20180;-67
2023/04/11 06:44:34;;;;;;;0.30;0.30;;;9.70;99.90;;;;;;4957222;29;20204;-65
2023/04/11 06:47:00;;;;;;;0.80;0.80;;;9.70;99.90;;;;;;4957666;29;20651;-67
2023/04/11 06:49:27;;;;;;;1.67;1.27;;;9.80;99.90;;;;;;4957862;29;20180;-63
2023/04/11 06:51:53;;;;;;;0.50;0.50;;;9.80;99.90;;;;;;4957571;29;20188;-68
2023/04/11 06:54:19;;;;;;;0.50;0.50;;;9.80;99.90;;;;;;4957182;29;20192;-66
2023/04/11 06:56:46;;;;;;;0.40;0.40;;;9.90;99.90;;;;;;4957124;29;20273;-67
2023/04/11 06:59:12;;;;;;;0.57;0.50;;;9.90;99.90;;;;;;4957607;29;20191;-66
2023/04/11 07:01:38;;;;;;;0.40;0.40;;;9.90;99.90;;;;;;4957163;29;20184;-67
2023/04/11 07:04:07;;;;;;;4.87;0.97;;;10.00;99.90;;;;;;4957052;29;20197;-66
2023/04/11 07:06:36;;;;;;;0.50;0.40;;;10.10;99.90;;;;;;4957128;29;20643;-66
2023/04/11 07:09:03;;;;;;;0.60;0.50;;;10.10;99.90;;;;;;4957134;29;20181;-67
2023/04/11 07:11:29;;;;;;;3.38;0.60;;;10.10;99.90;;;;;;4957325;29;20170;-65
2023/04/11 07:13:56;;;;;;;0.50;0.50;;;10.10;99.90;;;;;;4957112;29;20500;-67
2023/04/11 07:16:22;;;;;;;0.40;0.40;;;10.20;99.90;;;;;;4956583;28;20178;-66
2023/04/11 07:18:48;;;;;;;0.70;0.70;;;10.20;99.90;;;;;;4972555;28;20173;-69
2023/04/11 07:21:14;;;;;;;0.67;0.67;;;10.20;99.90;;;;;;4959271;28;20412;-65
2023/04/11 07:23:41;;;;;;;0.60;0.60;;;10.20;99.90;;;;;;4958851;28;20814;-67
2023/04/11 07:26:09;;;;;;;1.15;0.65;;;10.20;99.90;;;;;;4976611;28;20184;-65
2023/04/11 07:28:39;;;;;;;0.40;0.40;;;10.20;99.90;;;;;;4977050;28;20201;-66
2023/04/11 07:31:08;;;;;;;0.90;0.90;;;10.30;99.90;;;;;;4981890;28;20576;-68
2023/04/11 07:33:35;;;;;;;1.20;0.90;;;10.30;99.90;;;;;;4980119;28;20168;-66
2023/04/11 07:36:01;;;;;;;0.40;0.40;;;10.30;99.90;;;;;;4981374;28;20223;-67
2023/04/11 07:38:28;;;;;;;0.43;0.43;;;10.40;99.90;;;;;;4985594;28;20246;-67
2023/04/11 07:40:59;;;;;;;0.50;0.50;;;10.40;99.90;;;;;;4982024;28;20558;-66
2023/04/11 07:43:26;;;;;;;5.28;0.90;;;10.50;99.90;;;;;;4966768;28;20233;-65
2023/04/11 07:45:53;;;;;;;0.70;0.60;;;10.60;99.90;;;;;;4958354;29;20192;-67
2023/04/11 07:48:23;;;;;;;0.88;0.50;;;10.60;99.90;;;;;;4959123;29;20206;-65
2023/04/11 07:50:49;;;;;;;0.60;0.60;;;10.60;99.90;;;;;;4958279;29;20244;-67
2023/04/11 07:53:15;;;;;;;0.70;0.70;;;10.60;99.90;;;;;;4966365;28;20178;-68
2023/04/11 07:55:41;;;;;;;0.60;0.60;;;10.70;99.90;;;;;;4977364;28;20871;-66
2023/04/11 07:58:07;;;;;;;2.43;1.00;;;10.80;99.90;;;;;;4960607;28;20413;-66
2023/04/11 08:00:33;;;;;;;0.60;0.60;;;11.00;99.90;;;;;;4977715;28;20196;-66
2023/04/11 08:03:03;;;;;;;0.97;0.63;;;11.20;99.90;;;;;;4970119;28;20484;-65
2023/04/11 08:05:29;;;;;;;1.63;1.20;;;11.50;99.90;;;;;;4940302;29;20467;-65
2023/04/11 08:07:55;;;;;;;0.40;0.40;;;11.80;99.90;;;;;;4958500;29;20484;-68
2023/04/11 08:10:21;;;;;;;0.80;0.70;;;12.30;99.90;;;;;;4958462;29;20396;-66
2023/04/11 08:12:47;;;;;;;1.47;0.60;;;13.00;99.90;;;;;;4957445;29;20436;-65
2023/04/11 08:15:13;;;;;;;0.50;0.40;;;13.50;99.90;;;;;;4956075;29;20186;-66
2023/04/11 08:17:39;;;;;;;4.00;3.60;;;14.10;99.90;;;;;;4956792;29;20407;-66
2023/04/11 08:20:08;;;;;;;5.93;2.90;;;14.50;99.90;;;;;;4939337;29;20646;-70
2023/04/11 08:22:33;;;;;;;3.20;1.40;;;14.90;99.90;;;;;;4964626;28;20434;-65
2023/04/11 08:24:59;;;;;;;1.77;0.90;;;15.20;99.90;;;;;;4957168;28;20447;-66
2023/04/11 08:27:25;;;;;;;1.53;0.70;;;15.40;99.30;;;;;;4975229;28;20207;-67
2023/04/11 08:29:50;;;;;;;0.87;0.50;;;15.40;98.80;;;;;;4975325;28;20164;-68
2023/04/11 08:32:16;;;;;;;2.63;0.70;;;15.40;97.90;;;;;;4969958;28;20181;-67
2023/04/11 08:34:41;;;;;;;0.50;0.50;;;15.30;98.10;;;;;;4955514;29;20185;-64
2023/04/11 08:37:07;;;;;;;0.60;0.60;;;15.10;98.10;;;;;;4956021;29;20201;-65
2023/04/11 08:39:33;;;;;;;0.53;0.53;;;15.10;97.30;;;;;;4955718;29;20169;-66
2023/04/11 08:41:59;;;;;;;4.83;1.00;;;15.10;97.20;;;;;;4938158;29;20199;-68
2023/04/11 08:44:25;;;;;;;0.93;0.93;;;15.00;97.20;;;;;;4955328;29;20635;-65
2023/04/11 08:46:50;;;;;;;2.23;0.63;;;15.20;97.20;;;;;;4955723;29;20453;-69
2023/04/11 08:49:16;;;;;;;1.00;0.70;;;15.50;96.30;;;;;;4955717;29;20910;-67
2023/04/11 08:51:43;;;;;;;0.50;0.40;;;15.60;95.10;;;;;;4955915;28;20179;-69
2023/04/11 08:54:09;;;;;;;1.80;0.50;;;15.30;95.20;;;;;;4974966;28;20686;-65
2023/04/11 08:56:36;;;;;;;5.00;1.30;;;15.20;96.00;;;;;;4974769;28;20412;-67
2023/04/11 08:59:02;;;;;;;0.90;0.50;;;15.40;95.20;;;;;;4974743;28;20416;-67
2023/04/11 09:01:32;;;;;;;0.63;0.60;;;15.60;94.80;;;;;;4974859;28;20490;-68
2023/04/11 09:04:00;;;;;;;0.67;0.67;;;15.80;94.60;;;;;;4956050;28;20216;-65
2023/04/11 09:06:29;;;;;;;0.70;0.70;;;16.20;93.90;;;;;;4955301;29;20510;-64
2023/04/11 09:09:05;;;;;;;0.50;0.50;;;16.80;93.90;;;;;;4955320;29;20442;-67
2023/04/11 09:11:49;;;;;;;0.73;0.60;;;17.40;92.30;;;;;;4938556;29;20418;-68
2023/04/11 09:14:15;;;;;;;0.60;0.50;;;17.60;91.70;;;;;;4954696;29;20486;-67
2023/04/11 09:16:53;;;;;;;2.33;1.67;;;17.90;90.80;;;;;;4955180;29;20436;-66
2023/04/11 09:19:23;;;;;;;1.07;0.53;;;18.00;90.00;;;;;;4955353;29;20192;-65
2023/04/11 09:21:49;;;;;;;0.50;0.30;;;18.20;88.80;;;;;;4955303;29;20491;-67
2023/04/11 09:24:15;;;;;;;0.70;0.70;;;18.60;89.20;;;;;;4973465;28;20505;-66
2023/04/11 09:26:41;;;;;;;0.30;0.30;;;19.30;88.10;;;;;;4974504;28;20193;-67
2023/04/11 09:29:07;;;;;;;1.33;0.73;;;19.90;86.50;;;;;;4974540;28;20683;-66
2023/04/11 09:31:41;;;;;;;0.60;0.40;;;20.80;84.70;;;;;;4974429;28;20524;-67
2023/04/11 09:34:06;;;;;;;0.50;0.50;;;21.70;79.20;;;;;;4965449;28;20220;-65
2023/04/11 09:36:32;;;;;;;0.50;0.50;;;22.00;78.10;;;;;;4974437;28;20451;-66
2023/04/11 09:38:58;;;;;;;0.80;0.70;;;22.00;74.90;;;;;;4974862;28;20172;-67
2023/04/11 09:41:35;;;;;;;0.60;0.60;;;22.10;75.90;;;;;;4978514;28;20176;-69
2023/04/11 09:44:01;;;;;;;0.80;0.80;;;21.90;74.30;;;;;;4955212;28;20203;-66
2023/04/11 09:46:26;;;;;;;0.90;0.90;;;21.70;76.00;;;;;;4978110;28;20395;-67
2023/04/11 09:48:53;;;;;;;0.73;0.73;;;21.70;75.70;;;;;;4978407;28;20526;-68
2023/04/11 09:51:20;;;;;;;0.70;0.70;;;21.50;77.60;;;;;;4961258;28;20168;-66
2023/04/11 09:53:46;;;;;;;0.60;0.50;;;21.90;75.00;;;;;;4969270;28;20494;-67
2023/04/11 09:56:12;;;;;;;2.50;0.80;;;22.10;71.80;;;;;;4958644;29;20816;-66
2023/04/11 09:58:38;;;;;;;0.70;0.63;;;22.60;71.10;;;;;;4958611;29;20424;-67
2023/04/11 10:01:09;;;;;;;0.83;0.80;;;22.60;70.60;;;;;;4941273;29;20745;-69
2023/04/11 10:03:38;;;;;;;0.60;0.60;;;22.30;69.30;;;;;;4957979;29;20395;-68
2023/04/11 10:06:21;;;;;;;3.03;0.90;;;22.10;70.40;;;;;;4958338;29;20407;-67
2023/04/11 10:08:49;;;;;;;0.70;0.70;;;22.00;68.80;;;;;;4958363;29;20395;-65
2023/04/11 10:11:19;;;;;;;0.80;0.80;;;21.50;68.50;;;;;;4958215;29;20460;-66
2023/04/11 10:13:45;;;;;;;0.53;0.53;;;21.30;70.50;;;;;;4975998;28;20448;-66
2023/04/11 10:16:12;;;;;;;1.17;0.87;;;21.30;70.90;;;;;;4977476;28;20399;-66
2023/04/11 10:18:59;;;;;;;0.70;0.70;;;21.30;71.10;;;;;;4977565;28;20431;-68
2023/04/11 10:21:33;;;;;;;0.47;0.43;;;21.10;70.80;;;;;;4961576;28;20810;-69
2023/04/11 10:24:16;;;;;;;1.20;0.87;;;20.70;69.80;;;;;;4957532;28;20859;-67
2023/04/11 10:26:59;;;;;;;0.60;0.60;;;19.90;70.00;;;;;;4958250;29;20478;-68
2023/04/11 10:32:20;;;;;;;0.57;0.57;;;18.50;72.80;;;;;;4958198;28;20456;-67
2023/04/11 10:34:52;;;;;;;0.40;0.40;;;17.90;75.90;;;;;;4977121;28;20462;-65
2023/04/11 10:37:29;;;;;;;0.50;0.50;;;17.30;76.50;;;;;;4977543;28;20403;-68
2023/04/11 10:40:01;;;;;;;0.90;0.50;;;16.90;77.50;;;;;;4977324;28;20957;-67
2023/04/11 10:42:27;;;;;;;0.80;0.60;;;16.50;79.60;;;;;;4972947;28;20435;-65
2023/04/11 10:45:18;;;;;;;0.53;0.53;;;16.10;80.50;;;;;;4957386;29;20424;-67
2023/04/11 10:47:50;;;;;;;1.00;0.87;;;15.80;83.50;;;;;;4957960;29;20451;-66
2023/04/11 10:50:38;;;;;;;0.77;0.77;;;15.70;86.20;;;;;;4957818;28;20411;-66
2023/04/11 10:53:05;;;;;;;0.80;0.80;;;16.00;88.70;;;;;;4966031;28;20933;-66
2023/04/11 10:56:01;;;;;;;3.87;2.00;;;16.60;87.20;;;;;;4976946;28;20431;-67
2023/04/11 10:58:38;;;;;;;0.60;0.60;;;17.10;84.20;;;;;;4939427;28;20451;-67
2023/04/11 11:01:16;;;;;;;0.70;0.60;;;17.50;83.50;;;;;;4976759;28;20824;-66
2023/04/11 11:03:51;;;;;;;3.27;0.80;;;17.70;80.50;;;;;;4962308;28;20530;-67
2023/04/11 11:06:17;;;;;;;0.77;0.77;;;17.60;78.20;;;;;;4957344;28;20439;-67
2023/04/11 11:08:45;;;;;;;0.70;0.70;;;17.30;78.50;;;;;;4957009;29;20823;-68
2023/04/11 11:11:12;;;;;;;1.37;1.10;;;16.80;79.30;;;;;;4957425;29;20172;-65
2023/04/11 11:13:49;;;;;;;1.53;0.57;;;16.70;80.20;;;;;;4957366;29;20416;-67
2023/04/11 11:16:20;;;;;;;1.17;0.87;;;16.40;80.40;;;;;;4957360;29;20405;-65
2023/04/11 11:18:47;;;;;;;1.47;0.60;;;16.20;80.70;;;;;;4973870;28;20913;-66
2023/04/11 11:21:14;;;;;;;0.50;0.50;;;16.00;81.70;;;;;;4976600;28;20899;-66
2023/04/11 11:23:58;;;;;;;0.60;0.60;;;15.70;82.10;;;;;;4976040;28;20421;-67
2023/04/11 11:26:38;;;;;;;1.33;0.30;;;15.50;81.70;;;;;;4976504;28;20412;-66
2023/04/11 11:29:04;;;;;;;0.70;0.50;;;15.50;82.30;;;;;;4957268;28;20617;-65
2023/04/11 11:31:35;;;;;;;2.00;0.80;;;15.50;82.50;;;;;;4939776;29;20389;-66
2023/04/11 11:34:01;;;;;;;0.67;0.67;;;15.50;80.30;;;;;;4956432;29;20431;-65
2023/04/11 11:36:28;;;;;;;2.87;0.53;;;15.50;80.60;;;;;;4956795;29;20411;-66
2023/04/11 11:38:53;;;;;;;0.63;0.60;;;15.40;78.30;;;;;;4956280;28;20414;-67
2023/04/11 11:41:19;;;;;;;0.60;0.60;;;15.30;79.80;;;;;;4975962;28;20491;-67
2023/04/11 11:43:45;;;;;;;0.70;0.50;;;15.30;81.40;;;;;;4975736;28;20229;-65
2023/04/11 11:46:13;;;;;;;0.90;0.90;;;15.30;81.50;;;;;;4975821;28;20397;-66
2023/04/11 11:48:40;;;;;;;0.70;0.70;;;15.30;82.10;;;;;;4960604;28;20458;-67
2023/04/11 11:51:06;;;;;;;0.70;0.70;;;15.50;82.50;;;;;;4956404;29;20406;-65
2023/04/11 11:53:32;;;;;;;0.83;0.83;;;15.70;83.90;;;;;;4956120;29;20416;-68
2023/04/11 11:55:58;;;;;;;0.60;0.60;;;15.90;82.80;;;;;;4956422;29;20234;-66
2023/04/11 11:58:24;;;;;;;0.77;0.60;;;16.20;82.30;;;;;;4956057;29;20644;-66
2023/04/11 12:00:51;;;;;;;0.70;0.70;;;16.40;81.40;;;;;;4956272;29;20419;-66
2023/04/11 12:03:22;;;;;;;0.80;0.80;;;16.70;80.60;;;;;;4955938;28;20447;-66
2023/04/11 12:05:50;;;;;;;0.63;0.63;;;16.80;79.80;;;;;;4956037;28;20448;-65
2023/04/11 12:08:20;;;;;;;2.17;0.90;;;16.90;77.50;;;;;;4966395;28;20507;-67
2023/04/11 12:10:47;;;;;;;0.80;0.60;;;16.80;77.40;;;;;;4975629;28;20947;-65
2023/04/11 12:13:22;;;;;;;0.80;0.80;;;16.60;77.90;;;;;;4975089;28;20742;-67
2023/04/11 12:15:53;;;;;;;0.90;0.90;;;16.50;77.80;;;;;;4975353;28;20425;-65
2023/04/11 12:18:23;;;;;;;0.93;0.80;;;16.40;79.30;;;;;;4964861;28;20483;-67
2023/04/11 12:20:49;;;;;;;0.70;0.53;;;16.40;79.40;;;;;;4956147;29;20382;-65
2023/04/11 12:23:16;;;;;;;1.53;0.80;;;16.20;78.20;;;;;;4955668;29;20416;-67
2023/04/11 12:25:42;;;;;;;2.20;1.00;;;16.10;79.80;;;;;;4938703;29;20425;-63
2023/04/11 12:28:08;;;;;;;0.87;0.70;;;16.00;77.10;;;;;;4955345;29;20876;-67
2023/04/11 12:30:34;;;;;;;0.50;0.50;;;15.90;78.00;;;;;;4955743;29;20799;-66
2023/04/11 12:33:00;;;;;;;0.80;0.70;;;15.80;78.90;;;;;;4955849;29;20414;-70
2023/04/11 12:35:25;;;;;;;0.53;0.53;;;15.80;79.10;;;;;;4955681;29;20182;-66
2023/04/11 12:37:51;;;;;;;0.73;0.73;;;15.80;79.10;;;;;;4965157;28;20183;-68
2023/04/11 12:40:17;;;;;;;0.70;0.50;;;15.80;79.20;;;;;;4975266;28;20177;-65
2023/04/11 12:42:45;;;;;;;2.27;1.20;;;15.80;77.70;;;;;;4974978;28;20167;-66
2023/04/11 12:45:11;;;;;;;1.17;0.70;;;15.80;77.30;;;;;;4974486;28;20466;-67
2023/04/11 12:47:37;;;;;;;0.80;0.67;;;15.80;76.50;;;;;;4950008;29;20517;-65
2023/04/11 12:50:03;;;;;;;0.77;0.60;;;15.80;76.30;;;;;;4955707;29;20411;-66
2023/04/11 12:52:29;;;;;;;0.63;0.60;;;15.80;76.60;;;;;;4938473;29;20258;-64
2023/04/11 12:54:55;;;;;;;0.50;0.50;;;15.70;76.20;;;;;;4955240;29;20431;-66
2023/04/11 12:57:21;;;;;;;1.60;0.70;;;15.50;76.60;;;;;;4955374;29;20453;-67
2023/04/11 12:59:46;;;;;;;1.00;0.80;;;15.50;76.90;;;;;;4955655;29;20416;-66
2023/04/11 13:02:12;;;;;;;1.47;0.93;;;15.50;78.40;;;;;;4955654;29;20177;-66
2023/04/11 13:04:38;;;;;;;0.60;0.60;;;15.50;77.70;;;;;;4937632;29;20336;-67
2023/04/11 13:07:03;;;;;;;0.70;0.70;;;15.60;80.70;;;;;;4955483;28;20260;-67
2023/04/11 13:09:32;;;;;;;1.13;0.70;;;15.70;79.30;;;;;;4955201;29;20202;-66
2023/04/11 13:11:58;;;;;;;1.33;0.90;;;15.60;78.60;;;;;;4938029;29;20180;-68
2023/04/11 13:14:24;;;;;;;2.53;1.10;;;15.60;79.80;;;;;;4954471;29;20945;-67
2023/04/11 13:16:50;;;;;;;1.07;0.60;;;15.60;79.50;;;;;;4955131;29;20492;-65
2023/04/11 13:19:16;;;;;;;0.40;0.40;;;15.60;77.80;;;;;;4973981;28;20425;-66
2023/04/11 13:21:41;;;;;;;0.97;0.97;;;15.50;77.00;;;;;;4974740;28;20190;-67
2023/04/11 13:24:07;;;;;;;0.40;0.40;;;15.40;76.60;;;;;;4973951;28;20189;-66
2023/04/11 13:26:36;;;;;;;0.53;0.50;;;15.40;77.00;;;;;;4974322;28;20176;-68
2023/04/11 13:29:02;;;;;;;0.60;0.60;;;15.30;76.70;;;;;;4958033;28;20193;-67
2023/04/11 13:31:27;;;;;;;0.70;0.70;;;15.40;76.70;;;;;;4955012;29;20449;-67
2023/04/11 13:33:57;;;;;;;0.60;0.50;;;15.30;78.20;;;;;;4954790;29;20166;-68
2023/04/11 13:36:25;;;;;;;0.73;0.73;;;15.30;76.90;;;;;;4955166;29;20185;-67
2023/04/11 13:38:52;;;;;;;0.50;0.50;;;15.30;77.30;;;;;;4968998;28;20482;-65
2023/04/11 13:41:18;;;;;;;0.50;0.50;;;15.40;77.20;;;;;;4974658;28;20762;-66
2023/04/11 13:43:43;;;;;;;0.50;0.50;;;15.50;77.20;;;;;;4973887;28;20469;-66
2023/04/11 13:46:10;;;;;;;0.70;0.70;;;15.80;78.30;;;;;;4974146;28;20173;-66
2023/04/11 13:48:35;;;;;;;0.40;0.40;;;16.00;78.50;;;;;;4970151;28;20561;-67
2023/04/11 13:51:02;;;;;;;0.83;0.80;;;16.20;76.90;;;;;;4974442;28;20406;-66
2023/04/11 13:53:29;;;;;;;0.60;0.60;;;16.30;75.70;;;;;;4956664;28;20218;-67
2023/04/11 13:55:55;;;;;;;0.40;0.40;;;16.30;75.60;;;;;;4974103;28;20475;-67
2023/04/11 13:58:21;;;;;;;4.30;0.97;;;16.30;75.40;;;;;;4968538;28;20865;-66
2023/04/11 14:00:48;;;;;;;0.60;0.60;;;16.40;74.50;;;;;;4937791;29;20493;-65
2023/04/11 14:03:15;;;;;;;1.27;0.97;;;16.30;74.80;;;;;;4954586;29;20167;-66
2023/04/11 14:05:40;;;;;;;1.50;0.90;;;16.00;73.10;;;;;;4954743;28;20461;-66
2023/04/11 14:08:06;;;;;;;0.50;0.50;;;15.90;73.30;;;;;;4954524;29;20979;-65
2023/04/11 14:10:32;;;;;;;0.70;0.70;;;15.80;73.10;;;;;;4954745;29;20176;-67
2023/04/11 14:12:59;;;;;;;0.57;0.50;;;15.70;73.20;;;;;;4954977;29;20255;-67
2023/04/11 14:15:25;;;;;;;2.57;1.00;;;15.60;74.50;;;;;;4954420;29;20421;-65
2023/04/11 14:17:50;;;;;;;1.10;1.10;;;15.50;75.30;;;;;;4955086;29;20431;-67
2023/04/11 14:20:16;;;;;;;1.13;1.03;;;15.50;74.80;;;;;;4937735;29;20212;-68
2023/04/11 14:22:43;;;;;;;0.70;0.30;;;15.50;73.40;;;;;;4954786;29;20179;-65
2023/04/11 14:25:12;;;;;;;0.70;0.50;;;15.50;74.40;;;;;;4954327;28;20199;-65
2023/04/11 14:27:41;;;;;;;0.80;0.80;;;15.50;74.40;;;;;;4957226;29;20464;-67
2023/04/11 14:30:11;;;;;;;0.53;0.50;;;15.60;75.30;;;;;;4976632;28;20421;-66
2023/04/11 14:32:38;;;;;;;0.53;0.53;;;15.70;75.80;;;;;;4977492;28;20435;-64
2023/04/11 14:35:06;;;;;;;0.60;0.60;;;15.90;74.20;;;;;;4976800;28;20491;-65
2023/04/11 14:37:33;;;;;;;3.90;0.97;;;15.90;73.40;;;;;;4977674;28;20466;-65
2023/04/11 14:39:59;;;;;;;0.93;0.63;;;15.80;71.70;;;;;;4942816;29;20429;-68
2023/04/11 14:42:25;;;;;;;0.60;0.60;;;15.70;71.60;;;;;;4958079;29;20441;-64
2023/04/11 14:44:52;;;;;;;0.93;0.50;;;15.70;70.50;;;;;;4957558;29;20428;-65
2023/04/11 14:47:18;;;;;;;2.20;0.40;;;15.60;71.80;;;;;;4957713;29;20474;-65
2023/04/11 14:49:44;;;;;;;0.60;0.50;;;15.60;71.60;;;;;;4940106;29;20440;-67
2023/04/11 14:52:09;;;;;;;0.63;0.63;;;15.60;71.50;;;;;;4957704;29;20445;-64
2023/04/11 14:54:35;;;;;;;0.70;0.67;;;15.60;71.40;;;;;;4957270;29;20472;-68
2023/04/11 14:57:02;;;;;;;0.60;0.60;;;15.50;70.50;;;;;;4957649;29;20718;-66
2023/04/11 14:59:28;;;;;;;0.70;0.50;;;15.40;72.00;;;;;;4957390;29;20205;-68
2023/04/11 15:01:54;;;;;;;0.43;0.43;;;15.30;72.40;;;;;;4940461;29;20456;-68
2023/04/11 15:04:19;;;;;;;0.50;0.50;;;15.20;72.50;;;;;;4939887;29;20616;-67
2023/04/11 15:06:45;;;;;;;1.50;1.00;;;15.10;72.20;;;;;;4958655;28;20590;-68
2023/04/11 15:09:10;;;;;;;0.60;0.60;;;15.10;72.40;;;;;;4976870;28;20172;-66
2023/04/11 15:11:36;;;;;;;0.80;0.80;;;15.00;71.80;;;;;;4976688;28;20171;-69
2023/04/11 15:14:02;;;;;;;0.70;0.70;;;14.90;71.80;;;;;;4976293;28;20551;-66
2023/04/11 15:16:27;;;;;;;1.33;0.60;;;14.90;73.20;;;;;;4972801;28;20697;-65
2023/04/11 15:18:53;;;;;;;0.93;0.80;;;14.90;73.30;;;;;;4957153;28;20187;-65
2023/04/11 15:21:19;;;;;;;1.10;1.00;;;14.90;73.00;;;;;;4957196;29;20199;-64
2023/04/11 15:23:44;;;;;;;0.83;0.83;;;15.00;73.10;;;;;;4956989;29;20196;-65
2023/04/11 15:26:10;;;;;;;0.97;0.57;;;15.00;72.00;;;;;;4958597;28;20518;-65
2023/04/11 15:28:37;;;;;;;0.70;0.60;;;15.00;71.80;;;;;;4976186;28;20208;-67
2023/04/11 15:31:05;;;;;;;0.60;0.40;;;15.00;71.70;;;;;;4976442;28;20173;-65
2023/04/11 15:33:31;;;;;;;0.60;0.47;;;15.10;70.30;;;;;;4958616;28;20817;-65
2023/04/11 15:35:58;;;;;;;0.70;0.63;;;15.10;69.90;;;;;;4976076;28;20428;-65
2023/04/11 15:38:25;;;;;;;0.43;0.43;;;15.00;69.80;;;;;;4956847;28;20264;-66
2023/04/11 15:40:51;;;;;;;0.43;0.43;;;14.90;70.00;;;;;;4956794;29;20391;-64
2023/04/11 15:43:17;;;;;;;0.60;0.60;;;14.90;70.00;;;;;;4939171;29;20471;-66
2023/04/11 15:45:43;;;;;;;2.00;1.33;;;15.00;71.10;;;;;;4939300;29;20927;-65
2023/04/11 15:48:12;;;;;;;0.50;0.50;;;15.00;72.00;;;;;;4956240;29;20495;-67
2023/04/11 15:50:39;;;;;;;0.70;0.70;;;15.10;72.10;;;;;;4956661;29;20200;-65
2023/04/11 15:53:05;;;;;;;0.40;0.40;;;15.10;72.80;;;;;;4956301;29;20412;-67
2023/04/11 15:55:35;;;;;;;0.40;0.40;;;15.00;72.40;;;;;;4956510;29;20421;-67
2023/04/11 15:58:02;;;;;;;0.63;0.50;;;14.90;72.40;;;;;;4971681;28;20450;-66
2023/04/11 16:00:28;;;;;;;0.50;0.50;;;14.70;73.70;;;;;;4975681;28;20415;-65
2023/04/11 16:02:54;;;;;;;0.60;0.60;;;14.50;74.10;;;;;;4975652;28;20440;-67
2023/04/11 16:05:20;;;;;;;1.37;1.00;;;14.40;74.70;;;;;;4974828;28;20337;-65
2023/04/11 16:07:46;;;;;;;1.17;1.07;;;14.30;76.30;;;;;;4944981;29;20550;-66
2023/04/11 16:10:11;;;;;;;0.93;0.77;;;14.30;76.70;;;;;;4956316;29;20194;-64
2023/04/11 16:12:37;;;;;;;0.60;0.60;;;14.20;76.00;;;;;;4956368;29;20409;-65
2023/04/11 16:15:04;;;;;;;0.70;0.70;;;14.10;75.90;;;;;;4955853;29;20196;-67
2023/04/11 16:17:30;;;;;;;1.87;0.53;;;14.10;76.60;;;;;;4966559;28;20438;-63
2023/04/11 16:19:55;;;;;;;0.70;0.70;;;14.10;75.70;;;;;;4975328;28;20418;-65
2023/04/11 16:22:21;;;;;;;0.77;0.77;;;14.10;75.30;;;;;;4975512;28;20251;-64
2023/04/11 16:24:47;;;;;;;2.30;0.50;;;14.00;75.30;;;;;;4957417;28;20199;-66
2023/04/11 16:27:12;;;;;;;0.50;0.50;;;14.00;74.20;;;;;;4966917;28;20214;-66
2023/04/11 16:29:38;;;;;;;0.63;0.63;;;14.00;74.70;;;;;;4956012;29;20194;-68
2023/04/11 16:32:03;;;;;;;0.50;0.50;;;13.90;75.40;;;;;;4956824;28;20272;-67
2023/04/11 16:34:29;;;;;;;1.17;0.70;;;13.80;75.60;;;;;;4955546;29;20192;-65
2023/04/11 16:36:55;;;;;;;1.33;1.00;;;13.80;75.00;;;;;;4955975;29;20665;-69
2023/04/11 16:39:22;;;;;;;0.93;0.80;;;13.70;75.60;;;;;;4955787;29;20171;-64
2023/04/11 16:41:48;;;;;;;1.17;1.00;;;13.60;75.40;;;;;;4956586;28;20462;-65
2023/04/11 16:44:13;;;;;;;0.50;0.50;;;13.50;76.10;;;;;;4970270;28;20534;-64
2023/04/11 16:46:40;;;;;;;0.50;0.40;;;13.50;76.50;;;;;;4955624;29;20184;-65
2023/04/11 16:49:06;;;;;;;0.93;0.80;;;13.40;75.20;;;;;;4954927;28;20178;-64
2023/04/11 16:51:32;;;;;;;0.80;0.80;;;13.30;75.80;;;;;;4955732;29;20438;-65
2023/04/11 16:53:58;;;;;;;1.13;1.13;;;13.30;76.80;;;;;;4971720;28;20473;-65
2023/04/11 16:56:23;;;;;;;1.10;1.00;;;13.20;77.40;;;;;;4974827;28;20999;-64